Time;durP1;ratioP1;P1;durP2;ratioP2;P2;SDS_P1;SDS_P2;PMS_P1;PMS_P2;Temp;Humidity;BMP_temperature;BMP_pressure;BME280_temperature;BME280_humidity;BME280_pressure;Samples;Min_cycle;Max_cycle;Signal;HPM_P1;HPM_P2
2022/04/23 00:00:28;;;;;;;19.48;11.27;;;;;;;11.14;100.00;99771.88;5078619;28;20032;-62
2022/04/23 00:02:59;;;;;;;21.13;11.82;;;;;;;11.06;100.00;99776.16;5075569;28;20037;-62
2022/04/23 00:05:28;;;;;;;19.20;10.77;;;;;;;11.02;100.00;99775.13;5078537;28;20048;-62
2022/04/23 00:07:57;;;;;;;18.30;11.05;;;;;;;10.99;100.00;99792.97;5081997;28;20368;-62
2022/04/23 00:10:25;;;;;;;21.33;12.13;;;;;;;10.93;100.00;99779.66;5077384;28;20063;-62
2022/04/23 00:12:54;;;;;;;18.38;11.10;;;;;;;10.94;100.00;99782.09;5080602;28;20411;-62
2022/04/23 00:15:25;;;;;;;19.25;11.85;;;;;;;10.96;100.00;99790.81;5077555;28;20056;-62
2022/04/23 00:17:53;;;;;;;17.52;11.38;;;;;;;11.00;100.00;99789.09;5079288;28;20063;-62
2022/04/23 00:20:23;;;;;;;20.30;11.30;;;;;;;11.06;100.00;99789.00;5076911;28;20052;-62
2022/04/23 00:22:51;;;;;;;19.63;11.35;;;;;;;11.18;100.00;99794.00;5079600;28;20048;-62
2022/04/23 00:25:19;;;;;;;21.08;11.80;;;;;;;11.35;100.00;99793.41;5077977;28;20051;-62
2022/04/23 00:27:47;;;;;;;19.80;12.40;;;;;;;11.42;100.00;99789.13;5072967;28;20048;-62
2022/04/23 00:30:15;;;;;;;19.67;12.52;;;;;;;11.42;100.00;99793.78;5071406;28;20044;-62
2022/04/23 00:32:43;;;;;;;23.08;13.30;;;;;;;11.48;100.00;99791.78;5074107;28;20049;-62
2022/04/23 00:35:16;;;;;;;19.50;12.70;;;;;;;11.51;100.00;99797.47;5075655;28;20037;-62
2022/04/23 00:37:45;;;;;;;25.58;12.65;;;;;;;11.52;100.00;99799.06;5075282;28;20056;-62
2022/04/23 00:40:16;;;;;;;22.38;13.27;;;;;;;11.56;100.00;99800.09;5074769;28;20040;-62
2022/04/23 00:42:46;;;;;;;23.33;12.23;;;;;;;11.58;100.00;99796.22;5079716;28;20055;-62
2022/04/23 00:45:14;;;;;;;21.90;12.02;;;;;;;11.60;100.00;99804.94;5073791;28;20049;-63
2022/04/23 00:47:42;;;;;;;20.63;12.23;;;;;;;11.62;100.00;99797.22;5079361;28;20040;-62
2022/04/23 00:50:11;;;;;;;18.98;11.73;;;;;;;11.65;100.00;99802.09;5072095;28;20051;-62
2022/04/23 00:52:39;;;;;;;18.80;11.82;;;;;;;11.64;100.00;99800.50;5074308;28;20044;-62
2022/04/23 00:55:08;;;;;;;17.77;11.75;;;;;;;11.69;100.00;99806.66;5064960;28;20430;-62
2022/04/23 00:57:36;;;;;;;22.48;12.88;;;;;;;11.72;100.00;99798.97;5079828;28;20048;-62
2022/04/23 01:00:06;;;;;;;20.85;12.13;;;;;;;11.71;100.00;99800.88;5072930;28;20060;-62
2022/04/23 01:02:36;;;;;;;19.65;12.57;;;;;;;11.66;100.00;99787.28;5078776;28;20055;-62
2022/04/23 01:05:09;;;;;;;22.70;12.43;;;;;;;11.66;100.00;99790.84;5078173;28;20048;-62
2022/04/23 01:07:41;;;;;;;23.92;11.85;;;;;;;11.75;100.00;99782.72;5079325;28;20048;-62
2022/04/23 01:10:11;;;;;;;20.90;12.98;;;;;;;11.88;100.00;99782.97;5077751;28;20047;-62
2022/04/23 01:12:39;;;;;;;19.92;11.77;;;;;;;12.11;100.00;99785.81;5075177;28;20043;-62
2022/04/23 01:15:09;;;;;;;22.58;12.30;;;;;;;12.06;100.00;99776.56;5072764;28;20036;-62
2022/04/23 01:17:38;;;;;;;21.65;12.05;;;;;;;11.98;100.00;99770.97;5078668;28;20053;-62
2022/04/23 01:20:11;;;;;;;20.00;12.48;;;;;;;11.95;100.00;99766.91;5076656;28;20070;-62
2022/04/23 01:22:44;;;;;;;19.27;11.48;;;;;;;11.94;100.00;99765.31;5078588;28;20499;-62
2022/04/23 01:25:14;;;;;;;21.10;11.68;;;;;;;11.92;100.00;99773.00;5076643;28;20048;-62
2022/04/23 01:27:45;;;;;;;21.42;12.80;;;;;;;11.82;100.00;99777.63;5070573;28;20037;-62
2022/04/23 01:30:13;;;;;;;22.15;11.07;;;;;;;11.73;100.00;99776.69;5076105;28;20036;-62
2022/04/23 01:32:41;;;;;;;24.98;13.20;;;;;;;11.62;100.00;99764.34;5077673;28;20052;-62
2022/04/23 01:35:09;;;;;;;17.80;10.70;;;;;;;11.58;100.00;99771.56;5073826;28;20052;-62
2022/04/23 01:37:37;;;;;;;17.85;10.77;;;;;;;11.56;100.00;99775.44;5079391;28;20047;-62
2022/04/23 01:40:06;;;;;;;21.38;12.70;;;;;;;11.58;100.00;99777.06;5072605;28;20052;-62
2022/04/23 01:42:33;;;;;;;22.92;12.63;;;;;;;11.63;100.00;99774.22;5073240;28;20047;-62
2022/04/23 01:45:02;;;;;;;20.27;11.98;;;;;;;11.52;100.00;99779.91;5071700;28;20044;-62
2022/04/23 01:47:30;;;;;;;18.95;11.60;;;;;;;11.41;100.00;99787.53;5079648;28;20491;-62
2022/04/23 01:49:57;;;;;;;21.33;13.23;;;;;;;11.42;100.00;99789.13;5077987;28;20469;-62
2022/04/23 01:52:25;;;;;;;20.85;12.00;;;;;;;11.45;100.00;99800.59;5080561;28;20040;-62
2022/04/23 01:54:53;;;;;;;23.98;13.30;;;;;;;11.56;100.00;99804.75;5073044;28;20048;-62
2022/04/23 01:57:21;;;;;;;22.30;13.75;;;;;;;11.55;100.00;99803.94;5078339;28;20336;-62
2022/04/23 01:59:49;;;;;;;21.17;12.85;;;;;;;11.51;100.00;99799.38;5068467;28;20041;-62
2022/04/23 02:02:22;;;;;;;22.10;13.15;;;;;;;11.50;100.00;99798.56;5079226;28;20403;-62
2022/04/23 02:04:50;;;;;;;23.67;13.20;;;;;;;11.50;100.00;99801.31;5081216;28;20051;-62
2022/04/23 02:07:18;;;;;;;19.17;12.00;;;;;;;11.53;100.00;99803.44;5072675;28;20063;-62
2022/04/23 02:09:46;;;;;;;22.42;12.70;;;;;;;11.55;100.00;99808.63;5078165;28;20067;-62
2022/04/23 02:12:14;;;;;;;20.52;12.32;;;;;;;11.58;100.00;99804.44;5072599;28;20047;-62
2022/04/23 02:14:42;;;;;;;23.13;13.00;;;;;;;11.60;100.00;99810.44;5076699;28;20449;-62
2022/04/23 02:17:10;;;;;;;20.83;13.05;;;;;;;11.58;100.00;99810.72;5075144;28;20058;-62
2022/04/23 02:19:38;;;;;;;21.35;12.88;;;;;;;11.60;100.00;99816.72;5082775;28;20414;-62
2022/04/23 02:22:06;;;;;;;20.90;12.75;;;;;;;11.60;100.00;99819.47;5071329;28;20055;-62
2022/04/23 02:24:34;;;;;;;22.60;13.48;;;;;;;11.60;100.00;99815.91;5081970;28;20060;-62
2022/04/23 02:27:03;;;;;;;22.42;12.27;;;;;;;11.65;100.00;99818.56;5075691;28;20054;-62
2022/04/23 02:29:31;;;;;;;24.27;13.55;;;;;;;11.63;100.00;99810.63;5080435;28;20033;-62
2022/04/23 02:31:59;;;;;;;23.17;13.32;;;;;;;11.65;100.00;99808.41;5078444;28;20036;-62
2022/04/23 02:34:27;;;;;;;26.05;14.40;;;;;;;11.67;100.00;99810.81;5073029;28;20048;-62
2022/04/23 02:36:56;;;;;;;25.58;13.38;;;;;;;11.67;100.00;99800.69;5077708;28;20048;-62
2022/04/23 02:39:24;;;;;;;24.95;14.15;;;;;;;11.66;100.00;99790.03;5079854;28;20048;-62
2022/04/23 02:41:52;;;;;;;23.35;13.30;;;;;;;11.68;100.00;99782.28;5070817;28;20032;-62
2022/04/23 02:44:20;;;;;;;25.05;14.15;;;;;;;11.54;100.00;99791.34;5076395;28;20052;-62
2022/04/23 02:46:48;;;;;;;24.00;14.18;;;;;;;11.44;100.00;99780.59;5082313;28;20505;-63
2022/04/23 02:49:16;;;;;;;26.52;14.60;;;;;;;11.38;100.00;99787.28;5078975;28;20055;-62
2022/04/23 02:51:44;;;;;;;27.98;15.65;;;;;;;11.36;100.00;99792.28;5081869;28;20060;-63
2022/04/23 02:54:12;;;;;;;25.90;14.93;;;;;;;11.45;100.00;99798.69;5077931;28;20071;-63
2022/04/23 02:56:40;;;;;;;28.02;14.52;;;;;;;11.44;100.00;99802.50;5073958;28;20041;-63
2022/04/23 02:59:08;;;;;;;25.67;14.90;;;;;;;11.50;100.00;99804.06;5074240;28;20067;-62
2022/04/23 03:01:36;;;;;;;28.05;15.50;;;;;;;11.52;100.00;99801.81;5074148;28;20040;-63
2022/04/23 03:04:05;;;;;;;25.67;14.60;;;;;;;11.41;100.00;99805.88;5076683;28;20041;-63
2022/04/23 03:06:34;;;;;;;33.42;15.80;;;;;;;11.37;100.00;99819.38;5077166;28;20044;-62
2022/04/23 03:09:05;;;;;;;25.50;15.15;;;;;;;11.35;100.00;99812.56;5078048;28;20048;-62
2022/04/23 03:11:33;;;;;;;27.15;13.98;;;;;;;11.40;100.00;99823.44;5082019;28;20047;-63
2022/04/23 03:14:03;;;;;;;22.20;13.65;;;;;;;11.44;100.00;99816.22;5067953;28;20127;-63
2022/04/23 03:16:31;;;;;;;26.63;13.85;;;;;;;11.44;100.00;99821.69;5080724;28;20056;-63
2022/04/23 03:19:00;;;;;;;24.23;13.13;;;;;;;11.40;100.00;99829.72;5077121;28;20769;-63
2022/04/23 03:21:28;;;;;;;27.23;14.68;;;;;;;11.36;100.00;99831.44;5079841;28;20049;-63
2022/04/23 03:23:56;;;;;;;28.48;14.35;;;;;;;11.24;100.00;99826.47;5075583;28;20052;-63
2022/04/23 03:26:23;;;;;;;26.77;13.25;;;;;;;11.21;100.00;99829.00;5070901;28;20048;-63
2022/04/23 03:28:52;;;;;;;25.85;14.82;;;;;;;11.14;100.00;99815.69;5067952;28;20047;-63
2022/04/23 03:31:20;;;;;;;25.38;13.32;;;;;;;11.11;100.00;99819.84;5078498;28;20071;-63
2022/04/23 03:33:48;;;;;;;24.38;13.35;;;;;;;11.04;100.00;99819.44;5082764;28;20392;-62
2022/04/23 03:36:17;;;;;;;26.17;14.57;;;;;;;10.97;100.00;99814.38;5077578;28;20052;-63
2022/04/23 03:38:46;;;;;;;28.08;13.43;;;;;;;10.94;100.00;99812.22;5081688;28;20051;-62
2022/04/23 03:41:14;;;;;;;24.73;13.70;;;;;;;10.89;100.00;99810.38;5073629;28;20052;-63
2022/04/23 03:43:42;;;;;;;26.42;14.23;;;;;;;10.90;100.00;99811.19;5077483;28;20052;-63
2022/04/23 03:46:11;;;;;;;23.63;13.57;;;;;;;10.92;100.00;99822.66;5076504;28;20054;-63
2022/04/23 03:48:39;;;;;;;25.80;14.52;;;;;;;10.91;100.00;99822.97;5068580;28;20499;-63
2022/04/23 03:51:07;;;;;;;25.00;13.25;;;;;;;10.90;100.00;99824.88;5073291;28;20044;-62
2022/04/23 03:53:36;;;;;;;26.08;13.38;;;;;;;10.85;100.00;99831.25;5078567;28;20099;-62
2022/04/23 03:56:05;;;;;;;26.30;14.45;;;;;;;10.90;100.00;99838.56;5071125;28;20048;-62
2022/04/23 03:58:33;;;;;;;24.52;13.30;;;;;;;11.02;100.00;99838.91;5080685;28;20040;-63
2022/04/23 04:01:01;;;;;;;23.75;13.10;;;;;;;11.04;100.00;99832.31;5071036;28;20403;-62
2022/04/23 04:03:29;;;;;;;21.45;11.35;;;;;;;11.05;100.00;99839.41;5075383;28;20521;-63
2022/04/23 04:05:57;;;;;;;21.80;12.43;;;;;;;10.97;100.00;99840.91;5075631;28;20048;-64
2022/04/23 04:08:25;;;;;;;25.35;13.10;;;;;;;10.93;100.00;99829.75;5077840;28;20060;-62
2022/04/23 04:10:53;;;;;;;18.85;12.07;;;;;;;10.94;100.00;99842.31;5074799;28;20055;-62
2022/04/23 04:13:21;;;;;;;21.85;12.23;;;;;;;10.91;100.00;99842.94;5081595;28;20032;-63
2022/04/23 04:15:50;;;;;;;19.15;12.35;;;;;;;10.94;100.00;99847.81;5077051;28;20056;-62
2022/04/23 04:18:19;;;;;;;20.95;11.07;;;;;;;10.94;100.00;99849.75;5079227;28;20126;-62
2022/04/23 04:20:53;;;;;;;22.60;12.88;;;;;;;10.92;100.00;99857.44;5076500;28;20491;-63
2022/04/23 04:23:23;;;;;;;20.80;12.13;;;;;;;10.92;100.00;99862.91;5070299;28;20370;-63
2022/04/23 04:25:51;;;;;;;19.35;12.35;;;;;;;10.95;100.00;99873.28;5075944;28;20063;-62
2022/04/23 04:28:20;;;;;;;20.65;12.55;;;;;;;11.04;100.00;99865.19;5068576;28;20053;-62
2022/04/23 04:33:36;;;;;;;21.88;12.25;;;;;;;11.13;100.00;99866.91;5073215;28;20055;-62
2022/04/23 04:36:04;;;;;;;21.60;12.23;;;;;;;11.17;100.00;99869.88;5089914;28;20418;-62
2022/04/23 04:38:32;;;;;;;22.48;13.10;;;;;;;11.18;100.00;99879.69;5071867;28;20049;-62
2022/04/23 04:40:59;;;;;;;21.73;12.68;;;;;;;11.22;100.00;99871.69;5062994;28;20060;-63
2022/04/23 04:43:27;;;;;;;22.83;12.20;;;;;;;11.27;100.00;99866.13;5066401;28;20060;-62
2022/04/23 04:45:55;;;;;;;23.20;11.88;;;;;;;11.31;100.00;99869.91;5061498;28;20044;-62
2022/04/23 04:48:23;;;;;;;18.95;11.23;;;;;;;11.34;100.00;99871.22;5067219;28;20049;-62
2022/04/23 04:50:51;;;;;;;24.15;12.60;;;;;;;11.34;100.00;99884.91;5072210;28;20486;-62
2022/04/23 04:53:19;;;;;;;19.50;11.85;;;;;;;11.46;100.00;99873.44;5066949;28;20495;-63
2022/04/23 04:55:47;;;;;;;18.38;10.95;;;;;;;11.46;100.00;99868.78;5071209;28;20048;-63
2022/04/23 04:58:15;;;;;;;21.17;13.18;;;;;;;11.60;100.00;99874.28;5066418;28;20040;-63
2022/04/23 05:00:43;;;;;;;18.85;10.68;;;;;;;11.62;100.00;99879.44;5071678;28;20052;-62
2022/04/23 05:03:11;;;;;;;18.30;10.85;;;;;;;11.66;100.00;99869.50;5069788;28;20063;-62
2022/04/23 05:05:44;;;;;;;17.98;10.75;;;;;;;11.73;100.00;99874.59;5074707;28;20044;-63
2022/04/23 05:08:12;;;;;;;18.67;11.10;;;;;;;11.78;100.00;99886.25;5081651;28;20718;-63
2022/04/23 05:10:40;;;;;;;21.67;11.02;;;;;;;12.08;100.00;99880.47;5076276;28;20064;-70
2022/04/23 05:13:08;;;;;;;17.73;10.52;;;;;;;12.33;100.00;99879.06;5046039;28;20061;-71
2022/04/23 05:15:37;;;;;;;13.73;8.82;;;;;;;12.47;100.00;99878.25;5057346;28;20394;-72
2022/04/23 05:18:06;;;;;;;16.00;10.57;;;;;;;12.36;100.00;99885.88;5052943;28;20048;-72
2022/04/23 05:20:33;;;;;;;14.15;9.93;;;;;;;12.46;100.00;99887.59;5057867;28;20368;-72
2022/04/23 05:23:02;;;;;;;15.23;9.70;;;;;;;12.48;100.00;99890.84;5074272;28;20052;-72
2022/04/23 05:25:30;;;;;;;20.85;9.57;;;;;;;12.48;100.00;99891.63;5069031;28;20048;-72
2022/04/23 05:28:01;;;;;;;16.98;9.63;;;;;;;12.52;100.00;99900.09;5046577;28;20052;-72
2022/04/23 05:30:29;;;;;;;18.48;9.88;;;;;;;12.53;100.00;99900.88;5036286;28;20400;-72
2022/04/23 05:32:57;;;;;;;15.95;9.43;;;;;;;12.54;100.00;99900.56;5070496;28;20037;-71
2022/04/23 05:35:25;;;;;;;18.13;9.75;;;;;;;12.38;100.00;99900.13;5071611;28;20051;-71
2022/04/23 05:37:52;;;;;;;16.40;9.13;;;;;;;12.34;100.00;99907.34;5071608;28;20043;-71
2022/04/23 05:40:20;;;;;;;19.98;10.27;;;;;;;12.45;100.00;99914.22;5069796;28;20048;-71
2022/04/23 05:42:49;;;;;;;14.80;10.07;;;;;;;12.40;100.00;99908.84;5067488;28;20391;-71
2022/04/23 05:45:17;;;;;;;15.07;8.98;;;;;;;12.39;100.00;99920.13;5070191;28;20041;-72
2022/04/23 05:47:45;;;;;;;13.48;9.13;;;;;;;12.38;100.00;99916.59;5058095;28;20361;-71
2022/04/23 05:50:13;;;;;;;16.98;9.77;;;;;;;12.43;100.00;99910.16;5063586;28;20045;-71
2022/04/23 05:52:42;;;;;;;15.85;9.32;;;;;;;12.42;100.00;99930.50;5066058;28;20044;-71
2022/04/23 05:55:11;;;;;;;13.82;9.55;;;;;;;12.37;100.00;99934.16;5067053;28;20391;-72
2022/04/23 05:57:46;;;;;;;14.35;8.57;;;;;;;12.46;100.00;99928.75;5071323;28;20040;-71
2022/04/23 06:00:29;;;;;;;16.02;8.80;;;;;;;12.50;100.00;99932.50;5066011;28;20487;-72
2022/04/23 06:02:58;;;;;;;14.73;8.75;;;;;;;12.48;100.00;99937.50;5066657;28;20047;-71
2022/04/23 06:05:26;;;;;;;15.88;9.85;;;;;;;12.45;100.00;99938.91;5067089;28;20043;-71
2022/04/23 06:07:54;;;;;;;15.32;9.63;;;;;;;12.38;100.00;99945.94;5066421;28;20045;-71
2022/04/23 06:10:22;;;;;;;13.63;8.77;;;;;;;12.41;100.00;99959.06;5066771;28;20392;-71
2022/04/23 06:12:50;;;;;;;16.63;8.95;;;;;;;12.43;100.00;99954.06;5063455;28;20044;-71
2022/04/23 06:15:18;;;;;;;15.15;9.63;;;;;;;12.47;100.00;99960.56;5064115;28;20044;-71
2022/04/23 06:17:47;;;;;;;14.25;9.20;;;;;;;12.56;100.00;99968.88;5058993;28;20045;-71
2022/04/23 06:20:15;;;;;;;15.43;8.40;;;;;;;12.55;100.00;99976.28;5063151;28;20048;-71
2022/04/23 06:22:43;;;;;;;12.95;8.88;;;;;;;12.53;100.00;99977.72;5065776;28;20055;-71
2022/04/23 06:25:11;;;;;;;18.98;8.73;;;;;;;12.61;100.00;99975.06;5069332;28;20040;-71
2022/04/23 06:27:39;;;;;;;13.18;8.82;;;;;;;12.68;100.00;99965.59;5070427;28;20032;-71
2022/04/23 06:30:10;;;;;;;14.48;8.02;;;;;;;12.68;100.00;99968.34;5068471;28;20044;-71
2022/04/23 06:32:39;;;;;;;13.77;8.43;;;;;;;12.82;100.00;99968.31;5060897;28;20597;-71
2022/04/23 06:35:08;;;;;;;13.93;8.90;;;;;;;12.98;100.00;99966.81;5070397;28;20049;-72
2022/04/23 06:37:41;;;;;;;12.93;8.13;;;;;;;13.05;100.00;99963.63;5068045;28;20045;-71
2022/04/23 06:40:13;;;;;;;15.70;8.83;;;;;;;13.20;100.00;99967.13;5067588;28;20049;-71
2022/04/23 06:42:42;;;;;;;14.85;8.38;;;;;;;13.25;100.00;99965.06;5072691;28;20044;-71
2022/04/23 06:45:14;;;;;;;13.93;8.02;;;;;;;13.25;98.70;99956.03;5065807;28;20512;-72
2022/04/23 06:47:46;;;;;;;13.55;8.70;;;;;;;13.39;98.47;99954.00;5078560;28;20048;-72
2022/04/23 06:50:16;;;;;;;16.40;9.10;;;;;;;13.49;97.96;99957.66;5079346;28;20063;-71
2022/04/23 06:52:45;;;;;;;15.60;8.63;;;;;;;13.61;97.59;99962.53;5083887;28;20036;-72
2022/04/23 06:55:13;;;;;;;15.82;8.43;;;;;;;13.56;99.25;99952.50;5064493;28;20047;-71
2022/04/23 06:57:44;;;;;;;15.10;8.80;;;;;;;13.63;95.02;99966.59;5060810;28;20048;-71
2022/04/23 07:00:13;;;;;;;13.05;8.38;;;;;;;13.46;96.08;99961.84;5074287;28;20052;-71
2022/04/23 07:02:41;;;;;;;13.85;8.75;;;;;;;13.26;98.43;99965.88;5072864;28;20033;-71
2022/04/23 07:05:09;;;;;;;14.30;8.75;;;;;;;13.40;96.98;99965.81;5079410;28;20051;-71
2022/04/23 07:07:37;;;;;;;13.40;8.57;;;;;;;13.54;95.70;99969.31;5094432;28;20047;-71
2022/04/23 07:10:05;;;;;;;12.15;8.77;;;;;;;13.55;97.08;99961.88;5091986;28;20044;-71
2022/04/23 07:12:33;;;;;;;13.38;7.85;;;;;;;13.80;94.95;99957.66;5094700;28;20048;-71
2022/04/23 07:15:01;;;;;;;13.57;8.88;;;;;;;13.89;96.11;99960.41;5092857;28;20065;-71
2022/04/23 07:17:29;;;;;;;15.40;9.43;;;;;;;14.04;96.14;99966.63;5094311;28;20056;-72
2022/04/23 07:19:57;;;;;;;13.90;8.13;;;;;;;14.11;94.05;99956.78;5080973;28;20045;-71
2022/04/23 07:22:25;;;;;;;12.77;7.88;;;;;;;14.05;94.42;99951.72;5085825;28;20040;-71
2022/04/23 07:24:54;;;;;;;13.00;8.00;;;;;;;13.90;93.80;99945.53;5080106;28;20044;-71
2022/04/23 07:27:27;;;;;;;14.23;8.68;;;;;;;14.02;95.01;99955.13;5073670;28;20434;-71
2022/04/23 07:29:58;;;;;;;14.75;8.35;;;;;;;14.34;93.10;99966.88;5074076;28;20049;-71
2022/04/23 07:32:26;;;;;;;13.05;8.05;;;;;;;14.54;91.11;99978.38;5072220;28;20045;-71
2022/04/23 07:37:41;;;;;;;11.15;7.95;;;;;;;14.62;90.89;99974.84;5072509;28;20041;-72
2022/04/23 07:40:12;;;;;;;13.25;7.05;;;;;;;14.45;89.43;99964.59;5071726;28;20048;-72
2022/04/23 07:42:41;;;;;;;11.55;6.78;;;;;;;14.56;90.19;99968.69;5073307;28;20509;-72
2022/04/23 07:45:10;;;;;;;10.40;7.72;;;;;;;14.66;88.93;99964.78;5065027;28;20041;-72
2022/04/23 07:47:38;;;;;;;10.10;6.22;;;;;;;14.70;88.20;99970.47;5053769;28;20037;-71
2022/04/23 07:50:08;;;;;;;12.43;7.13;;;;;;;14.76;88.52;99983.78;5055005;28;20056;-72
2022/04/23 07:52:38;;;;;;;11.32;6.35;;;;;;;14.69;88.75;99975.19;5055872;28;20502;-71
2022/04/23 07:55:06;;;;;;;7.43;4.97;;;;;;;14.35;87.48;99968.47;5055231;28;20041;-72
2022/04/23 07:57:36;;;;;;;9.80;6.45;;;;;;;14.33;89.46;99962.50;5065970;28;20392;-72
2022/04/23 08:00:05;;;;;;;7.63;5.95;;;;;;;14.37;88.74;99967.03;5056418;28;20052;-72
2022/04/23 08:02:38;;;;;;;9.35;5.53;;;;;;;14.39;88.23;99972.22;5057408;28;20033;-72
2022/04/23 08:05:09;;;;;;;9.05;6.78;;;;;;;14.46;89.66;99972.56;5057619;28;20056;-71
2022/04/23 08:07:39;;;;;;;8.75;6.68;;;;;;;14.49;90.56;99982.13;5058447;28;20546;-71
2022/04/23 08:10:08;;;;;;;7.28;5.90;;;;;;;14.64;88.47;99984.41;5058444;28;20045;-72
2022/04/23 08:12:37;;;;;;;10.35;6.45;;;;;;;14.70;87.34;99976.78;5053598;28;20052;-71
2022/04/23 08:15:06;;;;;;;14.07;8.02;;;;;;;14.84;90.96;99981.34;5058670;28;20402;-72
2022/04/23 08:17:34;;;;;;;12.15;7.55;;;;;;;14.80;88.52;99985.91;5059070;28;20037;-72
2022/04/23 08:20:03;;;;;;;15.25;7.72;;;;;;;15.00;86.65;99984.47;5062506;28;20041;-72
2022/04/23 08:22:31;;;;;;;14.43;9.32;;;;;;;15.07;86.28;99986.72;5053397;28;20468;-72
2022/04/23 08:25:04;;;;;;;16.75;10.57;;;;;;;15.16;85.51;99990.28;5064184;28;20036;-72
2022/04/23 08:27:53;;;;;;;14.98;9.63;;;;;;;15.16;84.60;99987.53;5061323;28;20048;-71
2022/04/23 08:30:34;;;;;;;13.10;8.80;;;;;;;15.07;83.55;99984.78;5070642;28;20043;-72
2022/04/23 08:33:06;;;;;;;9.40;6.47;;;;;;;15.15;84.16;99988.66;5064872;28;20036;-72
2022/04/23 08:35:36;;;;;;;12.77;7.18;;;;;;;15.28;82.88;99984.09;5072378;28;20043;-72
2022/04/23 08:38:06;;;;;;;8.18;5.88;;;;;;;15.07;84.46;99972.94;5064783;28;20052;-72
2022/04/23 08:40:38;;;;;;;12.63;6.82;;;;;;;15.19;84.66;99992.38;5072512;28;20403;-72
2022/04/23 08:43:07;;;;;;;10.88;6.55;;;;;;;15.19;84.18;99992.38;5061783;28;20052;-72
2022/04/23 08:45:37;;;;;;;10.68;7.20;;;;;;;15.37;84.89;100008.91;5071567;28;20043;-72
2022/04/23 08:48:09;;;;;;;8.45;6.15;;;;;;;15.49;83.56;100016.50;5072066;28;20048;-72
2022/04/23 08:50:39;;;;;;;10.65;7.00;;;;;;;15.49;82.16;100003.50;5071892;28;20039;-72
2022/04/23 08:53:18;;;;;;;8.75;6.72;;;;;;;15.51;83.11;100004.03;5059222;28;20072;-73
2022/04/23 08:55:57;;;;;;;13.23;7.45;;;;;;;15.72;82.35;100008.81;5056927;28;20045;-72
2022/04/23 08:58:25;;;;;;;10.50;7.30;;;;;;;15.69;79.84;100004.78;5053986;28;20045;-72
2022/04/23 09:00:53;;;;;;;11.10;6.88;;;;;;;15.65;79.92;100003.00;5069693;28;20044;-72
2022/04/23 09:03:21;;;;;;;13.82;7.78;;;;;;;15.72;80.59;100004.13;5070963;28;20044;-72
2022/04/23 09:05:53;;;;;;;12.52;7.78;;;;;;;15.64;81.01;100002.19;5071502;28;20036;-72
2022/04/23 09:08:21;;;;;;;9.10;6.78;;;;;;;15.75;81.07;100010.94;5071981;28;20049;-72
2022/04/23 09:10:56;;;;;;;13.82;7.15;;;;;;;15.90;80.75;100020.63;5070826;28;20048;-73
2022/04/23 09:13:29;;;;;;;11.73;7.07;;;;;;;16.06;80.02;100020.91;5071553;28;20040;-73
2022/04/23 09:24:47;;;;;;;12.00;7.93;;;;;;;16.45;76.41;100006.25;5071039;28;20036;-72
2022/04/23 09:27:16;;;;;;;11.52;7.35;;;;;;;16.36;76.77;100015.41;5072062;28;20048;-73
2022/04/23 09:29:58;;;;;;;13.65;8.18;;;;;;;16.31;76.31;100021.13;5071157;28;20049;-73
2022/04/23 09:32:27;;;;;;;13.02;7.68;;;;;;;16.32;78.21;100035.75;5069330;28;20056;-73
2022/04/23 09:35:10;;;;;;;12.68;8.18;;;;;;;16.54;77.40;100020.84;5070495;28;20487;-73
2022/04/23 09:40:28;;;;;;;12.68;8.20;;;;;;;16.63;74.28;100018.81;5070219;28;20051;-73
2022/04/23 09:43:02;;;;;;;12.55;8.30;;;;;;;16.76;75.21;100025.25;5070277;28;20049;-73
2022/04/23 09:45:31;;;;;;;12.90;7.90;;;;;;;16.90;74.57;100038.78;5070404;28;20064;-73
2022/04/23 09:48:06;;;;;;;13.93;7.93;;;;;;;16.82;75.09;100028.63;5070615;28;20386;-73
2022/04/23 09:50:41;;;;;;;13.30;8.30;;;;;;;16.61;75.17;100026.63;5071247;28;20044;-73
2022/04/23 09:53:18;;;;;;;12.70;8.65;;;;;;;16.71;75.34;100021.88;5070163;28;20487;-73
2022/04/23 09:55:50;;;;;;;10.30;7.90;;;;;;;16.53;75.68;100024.75;5071515;28;20037;-73
2022/04/23 09:58:19;;;;;;;13.13;7.80;;;;;;;16.41;74.96;100033.72;5070542;28;20037;-73
2022/04/23 10:00:47;;;;;;;11.15;7.38;;;;;;;16.43;74.92;100028.69;5073645;28;20052;-73
2022/04/23 10:03:15;;;;;;;11.35;7.30;;;;;;;16.32;73.94;100036.53;5081102;28;20045;-73
2022/04/23 10:05:48;;;;;;;12.43;6.50;;;;;;;16.35;74.86;100026.78;5082623;28;20071;-73
2022/04/23 10:08:24;;;;;;;12.57;7.40;;;;;;;16.39;75.64;100039.59;5091773;28;20048;-72
2022/04/23 10:11:13;;;;;;;12.57;7.75;;;;;;;16.33;74.89;100037.34;5091770;28;20066;-73
2022/04/23 10:13:46;;;;;;;13.55;7.75;;;;;;;16.02;76.62;100044.00;5091797;28;20399;-72
2022/04/23 10:16:17;;;;;;;12.73;7.25;;;;;;;15.99;77.21;100050.97;5091628;28;20047;-73
2022/04/23 10:18:46;;;;;;;12.48;7.75;;;;;;;15.95;76.18;100048.06;5091631;28;20036;-73
2022/04/23 10:21:34;;;;;;;14.55;7.63;;;;;;;15.83;75.92;100050.66;5075826;28;20048;-73
2022/04/23 10:24:07;;;;;;;11.85;7.07;;;;;;;15.89;73.77;100051.28;5069240;28;20048;-73
2022/04/23 10:26:38;;;;;;;9.60;6.85;;;;;;;15.95;73.43;100055.53;5075081;28;20035;-73
2022/04/23 10:29:23;;;;;;;12.88;7.93;;;;;;;15.91;74.58;100043.50;5073932;28;20072;-72
2022/04/23 10:32:10;;;;;;;11.00;7.35;;;;;;;15.94;75.22;100051.16;5084650;28;20510;-73
2022/04/23 10:34:39;;;;;;;11.23;7.30;;;;;;;16.09;75.29;100038.75;5072842;28;20399;-73
2022/04/23 10:37:24;;;;;;;12.45;7.28;;;;;;;16.26;75.48;100040.63;5073666;28;20052;-73
2022/04/23 10:39:52;;;;;;;14.30;7.40;;;;;;;16.36;75.09;100040.25;5072816;28;20515;-73
2022/04/23 10:42:22;;;;;;;12.55;7.40;;;;;;;16.42;75.26;100042.84;5073776;28;20052;-73
2022/04/23 10:44:55;;;;;;;11.13;7.60;;;;;;;16.48;74.41;100052.56;5072951;28;20059;-73
2022/04/23 10:47:28;;;;;;;10.15;7.28;;;;;;;16.57;74.08;100052.50;5074276;28;20485;-73
2022/04/23 10:50:25;;;;;;;11.60;7.28;;;;;;;16.48;73.87;100045.06;5072268;28;20048;-73
2022/04/23 10:53:01;;;;;;;10.32;7.03;;;;;;;16.66;70.96;100031.97;5074323;28;20058;-73
2022/04/23 10:55:29;;;;;;;12.20;7.45;;;;;;;16.82;70.64;100022.28;5074328;28;20048;-73
2022/04/23 10:58:21;;;;;;;11.38;7.35;;;;;;;16.89;71.68;100034.41;5073854;28;20041;-73
2022/04/23 11:00:49;;;;;;;10.57;7.15;;;;;;;17.04;70.34;100032.22;5073164;28;20517;-73
2022/04/23 11:03:27;;;;;;;11.73;7.57;;;;;;;17.15;68.97;100030.66;5073094;28;20037;-73
2022/04/23 11:14:44;;;;;;;11.20;7.95;;;;;;;17.21;68.00;100027.69;5063736;28;20049;-73
2022/04/23 11:17:13;;;;;;;14.13;7.70;;;;;;;17.15;66.79;100016.84;5067538;28;20049;-73
2022/04/23 11:19:41;;;;;;;13.60;7.72;;;;;;;17.50;66.45;100025.97;5071106;28;20044;-73
2022/04/23 11:22:10;;;;;;;12.75;8.15;;;;;;;17.85;65.28;100018.09;5070940;28;20052;-73
2022/04/23 11:24:39;;;;;;;13.52;8.23;;;;;;;18.07;65.62;100020.78;5065550;28;20044;-73
2022/04/23 11:27:08;;;;;;;12.65;7.47;;;;;;;18.18;65.24;100012.84;5070872;28;20048;-73
2022/04/23 11:29:40;;;;;;;11.15;6.97;;;;;;;18.45;65.41;100008.56;5062266;28;20048;-74
2022/04/23 11:32:08;;;;;;;11.98;7.93;;;;;;;18.54;65.74;100016.75;5063236;28;20048;-73
2022/04/23 11:34:39;;;;;;;11.02;7.03;;;;;;;18.57;63.76;100007.75;5060607;28;20041;-73
2022/04/23 11:37:27;;;;;;;10.50;7.00;;;;;;;18.76;63.88;99996.03;5069413;28;20051;-73
2022/04/23 11:40:07;;;;;;;9.80;6.70;;;;;;;18.66;62.42;100007.59;5082523;28;20051;-73
2022/04/23 11:42:43;;;;;;;10.73;7.35;;;;;;;18.38;63.99;100000.84;5068242;28;20049;-72
2022/04/23 11:45:14;;;;;;;9.90;6.70;;;;;;;18.73;62.38;99996.72;5067256;28;20049;-73
2022/04/23 11:47:42;;;;;;;9.63;6.78;;;;;;;18.60;61.84;99992.38;5049288;28;20060;-73
2022/04/23 11:50:16;;;;;;;10.90;7.13;;;;;;;18.48;62.68;99996.78;5064209;28;20041;-73
2022/04/23 11:52:55;;;;;;;12.40;8.30;;;;;;;18.46;63.74;99988.03;5065918;28;20519;-74